Palatine, IL

2:21 AM CDT on September 01, 2015 (GMT -0500)
Arlington Heights Historical District | | Change Station
CLOSE
Current Station
Personal Weather Station
Location: Arlington Heights, IL
Elevation: 722 ft
Nearby Weather Stations

Elev 722 ft 42.09 °N, 87.99 °W | Updated 55 seconds ago

Clear
Clear
67.6 °F
Feels Like 67.6 °F
N
0.0
Wind Variable Wind from NE
Gusts 0.0 mph

Today
High -- | Low -- °F
--% Chance of Precip.
Yesterday
High -- | Low -- °F
Precip. -- in
6:17 AM 7:26 PM
Waning Gibbous, 91% visible
Pressure 30.04 in
Visibility 5.0 miles
Clouds Clear
Dew Point 67 °F
Humidity 99%
Rainfall 0.00 in
Snow Depth Not available.
UV 0 out of 12
Pollen 10.10 out of 12
Air Quality Not available.
Flu Activity Not available.
METAR KPWK 010652Z AUTO 00000KT 5SM BR CLR 20/18 A3005 RMK AO2 SLP171 T02000183
Pressure 30.04 in
Visibility 5.0 miles
Clouds Clear
Dew Point 67 °F
Humidity 99%
Rainfall 0.00 in
Snow Depth Not available.
UV 0 out of 12
Pollen 10.10 out of 12
Air Quality Not available.
Flu Activity Not available.
METAR KPWK 010652Z AUTO 00000KT 5SM BR CLR 20/18 A3005 RMK AO2 SLP171 T02000183

10-Day Weather Forecast

×

Almanac

Astronomy

Sep. 01, 2015 Rise Set
Actual Time
Civil Twilight
Nautical Twilight
Astronomical Twilight
Moon
Length of Visible Light
Length of Day
Tomorrow will be .
, % of the Moon is Illuminated

Today's Extremes

State Highs State Lows

Community

WunderPhotos

Upload Photos

1,851,488 photos uploaded!

WunderBlogs® & News

Nearby

Air Quality

  Air Quality AQ Index Pollutant
Not available.

Snow Depth

Station Depth Elevation

Earthquake Activity

City Distance Mag. Time & Date
Minimum magnitude displayed is 2.5.

Coastal Water Temperatures

Place Temperature

Stations

Nearby Weather Stations

Station Location Temp. Windchill Dew Point Humidity Wind Precip. Elev Updated Type